createdAt,value
2022-12-11T00:00:09.556Z,57.80
2022-12-11T00:01:10.417Z,54.10
2022-12-11T00:02:11.557Z,57.30
2022-12-11T00:03:15.886Z,59.40
2022-12-11T00:04:12.620Z,57.70
2022-12-11T00:05:13.474Z,55.50
2022-12-11T00:06:14.335Z,54.00
2022-12-11T00:07:15.196Z,57.10
2022-12-11T00:08:16.208Z,59.70
2022-12-11T00:09:17.020Z,51.10
2022-12-11T00:10:17.883Z,56.30
2022-12-11T00:11:18.728Z,51.50
2022-12-11T00:12:19.593Z,55.50
2022-12-11T00:13:20.473Z,51.20
2022-12-11T00:14:21.290Z,54.20
2022-12-11T00:15:22.143Z,56.30
2022-12-11T00:16:26.967Z,58.40
2022-12-11T00:17:23.599Z,56.30
2022-12-11T00:18:24.454Z,63.60
2022-12-11T00:19:25.310Z,56.40
2022-12-11T00:20:26.165Z,60.80
2022-12-11T00:21:27.019Z,58.40
2022-12-11T00:22:28.037Z,56.90
2022-12-11T00:23:28.879Z,55.90
2022-12-11T00:24:29.713Z,52.90
2022-12-11T00:25:30.566Z,58.40
2022-12-11T00:26:31.419Z,60.60
2022-12-11T00:27:32.505Z,59.80
2022-12-11T00:28:32.874Z,61.70
2022-12-11T00:29:33.709Z,59.80
2022-12-11T00:30:34.560Z,53.30
2022-12-11T00:31:35.527Z,53.30
2022-12-11T00:32:37.846Z,58.40
2022-12-11T00:33:37.211Z,57.50
2022-12-11T00:34:38.067Z,56.70
2022-12-11T00:35:38.918Z,61.60
2022-12-11T00:36:39.774Z,63.80
2022-12-11T00:37:40.671Z,64.20
2022-12-11T00:38:41.547Z,66.70
2022-12-11T00:39:42.380Z,68.20
2022-12-11T00:40:43.292Z,62.10
2022-12-11T00:41:44.147Z,66.70
2022-12-11T00:42:45.030Z,66.60
2022-12-11T00:43:45.975Z,62.20
2022-12-11T00:44:46.771Z,61.60
2022-12-11T00:45:47.680Z,63.60
2022-12-11T00:46:48.493Z,64.80
2022-12-11T00:47:49.358Z,62.50
2022-12-11T00:48:50.214Z,69.70
2022-12-11T00:49:51.072Z,69.00
2022-12-11T00:50:51.924Z,61.00
2022-12-11T00:51:52.778Z,66.80
2022-12-11T00:52:53.642Z,65.70
2022-12-11T00:53:54.539Z,61.00
2022-12-11T00:54:55.373Z,70.10
2022-12-11T00:55:56.226Z,72.40
2022-12-11T00:56:57.079Z,66.80
2022-12-11T00:57:57.997Z,63.30
2022-12-11T00:58:58.887Z,65.70
2022-12-11T00:59:59.736Z,63.20
2022-12-11T01:01:00.605Z,71.90
2022-12-11T01:02:01.430Z,70.50
2022-12-11T01:03:02.396Z,65.10
2022-12-11T01:04:03.245Z,57.00
2022-12-11T01:05:04.100Z,65.80
2022-12-11T01:06:04.957Z,63.70
2022-12-11T01:07:05.819Z,59.70
2022-12-11T01:08:07.023Z,53.70
2022-12-11T01:09:07.412Z,59.80
2022-12-11T01:10:08.339Z,53.80
2022-12-11T01:11:09.146Z,53.10
2022-12-11T01:12:10.008Z,52.30
2022-12-11T01:13:10.868Z,54.70
2022-12-11T01:14:11.745Z,53.00
2022-12-11T01:15:12.936Z,48.40
2022-12-11T01:16:13.618Z,48.30
2022-12-11T01:17:14.465Z,51.60
2022-12-11T01:18:15.489Z,53.10
2022-12-11T01:19:15.853Z,47.00
2022-12-11T01:20:16.711Z,49.80
2022-12-11T01:21:17.568Z,48.80
2022-12-11T01:22:18.467Z,49.90
2022-12-11T01:23:19.491Z,50.80
2022-12-11T01:24:19.868Z,47.60
2022-12-11T01:25:20.703Z,52.10
2022-12-11T01:26:21.563Z,43.50
2022-12-11T01:27:22.415Z,46.80
2022-12-11T01:28:23.276Z,49.20
2022-12-11T01:29:24.149Z,48.10
2022-12-11T01:30:25.064Z,51.30
2022-12-11T01:31:25.869Z,47.40
2022-12-11T01:32:26.752Z,46.10
2022-12-11T01:33:27.615Z,49.70
2022-12-11T01:34:28.486Z,50.40
2022-12-11T01:35:29.342Z,48.30
2022-12-11T01:36:30.195Z,50.30
2022-12-11T01:37:31.052Z,49.90
2022-12-11T01:38:31.989Z,49.90
2022-12-11T01:39:38.843Z,48.70
2022-12-11T01:40:34.592Z,46.90
2022-12-11T01:41:34.449Z,44.00
2022-12-11T01:42:35.325Z,49.00
2022-12-11T01:43:36.196Z,47.80
2022-12-11T01:44:37.076Z,43.80
2022-12-11T01:45:37.911Z,48.40
2022-12-11T01:46:38.764Z,45.90
2022-12-11T01:47:39.618Z,52.70
2022-12-11T01:48:42.369Z,48.70
2022-12-11T01:49:41.279Z,51.70
2022-12-11T01:50:42.135Z,49.70
2022-12-11T01:51:42.997Z,46.30
2022-12-11T01:52:43.853Z,49.50
2022-12-11T01:53:44.718Z,48.20
2022-12-11T01:54:45.570Z,49.90
2022-12-11T01:55:46.423Z,48.50
2022-12-11T01:56:47.279Z,47.90
2022-12-11T01:57:48.151Z,45.70
2022-12-11T01:58:49.000Z,50.60
2022-12-11T01:59:49.871Z,47.40
2022-12-11T02:00:50.757Z,52.30
2022-12-11T02:01:51.577Z,50.50
2022-12-11T02:02:52.530Z,45.40
2022-12-11T02:03:53.344Z,48.80
2022-12-11T02:04:54.216Z,52.50
2022-12-11T02:05:55.071Z,56.40
2022-12-11T02:06:55.943Z,58.60
2022-12-11T02:07:56.949Z,53.60
2022-12-11T02:08:57.981Z,57.20
2022-12-11T02:09:58.340Z,60.60
2022-12-11T02:10:59.191Z,56.90
2022-12-11T02:12:00.044Z,59.80
2022-12-11T02:13:00.921Z,68.10
2022-12-11T02:14:01.765Z,63.80
2022-12-11T02:15:02.658Z,68.80
2022-12-11T02:16:03.529Z,63.60
2022-12-11T02:17:04.355Z,65.80
2022-12-11T02:18:05.214Z,67.60
2022-12-11T02:19:06.477Z,73.10
2022-12-11T02:20:06.844Z,81.10
2022-12-11T02:21:07.694Z,66.40
2022-12-11T02:22:08.549Z,76.90
2022-12-11T02:23:09.405Z,71.80
2022-12-11T02:24:10.270Z,72.10
2022-12-11T02:25:11.548Z,80.10
2022-12-11T02:26:11.950Z,74.40
2022-12-11T02:27:12.805Z,77.50
2022-12-11T02:28:13.695Z,74.20
2022-12-11T02:29:14.978Z,74.60
2022-12-11T02:30:15.353Z,69.20
2022-12-11T02:31:16.225Z,70.00
2022-12-11T02:32:17.027Z,75.30
2022-12-11T02:33:17.882Z,79.10
2022-12-11T02:34:18.749Z,71.30
2022-12-11T02:35:19.623Z,78.30
2022-12-11T02:36:20.479Z,75.20
2022-12-11T02:37:21.349Z,66.00
2022-12-11T02:38:22.206Z,85.50
2022-12-11T02:39:23.069Z,75.10
2022-12-11T02:40:23.936Z,75.20
2022-12-11T02:41:24.792Z,86.30
2022-12-11T02:42:25.645Z,74.30
2022-12-11T02:43:26.518Z,81.50
2022-12-11T02:44:27.499Z,81.60
2022-12-11T02:45:27.899Z,78.30
2022-12-11T02:46:28.700Z,82.60
2022-12-11T02:47:29.553Z,72.90
2022-12-11T02:48:30.409Z,68.40
2022-12-11T02:49:31.273Z,71.10
2022-12-11T02:50:32.130Z,80.30
2022-12-11T02:51:32.987Z,80.80
2022-12-11T02:52:33.842Z,72.10
2022-12-11T02:53:34.696Z,71.00
2022-12-11T02:54:35.974Z,82.00
2022-12-11T02:55:36.328Z,74.40
2022-12-11T02:56:37.183Z,76.10
2022-12-11T02:57:38.040Z,73.50
2022-12-11T02:58:39.205Z,69.10
2022-12-11T02:59:39.486Z,77.20
2022-12-11T03:00:40.372Z,78.70
2022-12-11T03:01:41.214Z,75.60
2022-12-11T03:02:42.074Z,78.60
2022-12-11T03:03:42.892Z,71.90
2022-12-11T03:04:43.756Z,76.90
2022-12-11T03:05:44.608Z,80.70
2022-12-11T03:06:45.463Z,78.60
2022-12-11T03:07:46.398Z,77.50
2022-12-11T03:08:47.221Z,83.80
2022-12-11T03:09:48.472Z,87.20
2022-12-11T03:10:48.824Z,78.90
2022-12-11T03:11:49.694Z,97.80
2022-12-11T03:12:53.757Z,84.70
2022-12-11T03:13:51.395Z,82.00
2022-12-11T03:14:52.478Z,85.80
2022-12-11T03:15:52.853Z,80.80
2022-12-11T03:16:53.689Z,84.60
2022-12-11T03:17:54.543Z,84.40
2022-12-11T03:18:55.437Z,85.30
2022-12-11T03:19:56.465Z,88.20
2022-12-11T03:20:56.847Z,82.80
2022-12-11T03:21:57.777Z,74.80
2022-12-11T03:22:58.628Z,86.00
2022-12-11T03:23:59.493Z,89.00
2022-12-11T03:25:00.357Z,91.10
2022-12-11T03:26:01.213Z,86.60
2022-12-11T03:27:03.603Z,90.80
2022-12-11T03:28:02.603Z,87.80
2022-12-11T03:29:03.474Z,90.60
2022-12-11T03:30:04.322Z,78.40
2022-12-11T03:31:05.277Z,80.30
2022-12-11T03:32:06.059Z,78.10
2022-12-11T03:33:06.922Z,87.00
2022-12-11T03:34:07.778Z,86.10
2022-12-11T03:35:08.641Z,77.50
2022-12-11T03:36:09.497Z,79.30
2022-12-11T03:37:10.350Z,86.20
2022-12-11T03:38:11.205Z,79.90
2022-12-11T03:39:12.056Z,84.90
2022-12-11T03:40:12.963Z,74.90
2022-12-11T03:41:13.817Z,74.80
2022-12-11T03:42:14.676Z,76.30
2022-12-11T03:43:15.533Z,82.80
2022-12-11T03:44:16.437Z,88.80
2022-12-11T03:45:17.300Z,84.30
2022-12-11T03:46:18.247Z,82.90
2022-12-11T03:47:19.050Z,80.00
2022-12-11T03:48:19.913Z,82.60
2022-12-11T03:49:20.772Z,87.80
2022-12-11T03:50:21.959Z,81.70
2022-12-11T03:51:22.313Z,83.50
2022-12-11T03:52:23.168Z,84.80
2022-12-11T03:53:24.025Z,90.10
2022-12-11T03:54:24.889Z,78.70
2022-12-11T03:55:25.744Z,82.60
2022-12-11T03:56:26.599Z,75.50
2022-12-11T03:57:27.467Z,79.60
2022-12-11T03:58:28.310Z,77.50
2022-12-11T03:59:29.196Z,75.00
2022-12-11T04:00:30.040Z,70.60
2022-12-11T04:01:30.942Z,82.00
2022-12-11T04:02:31.779Z,88.20
2022-12-11T04:03:32.592Z,79.80
2022-12-11T04:04:33.460Z,83.30
2022-12-11T04:05:34.461Z,77.80
2022-12-11T04:06:34.815Z,75.80
2022-12-11T04:07:35.666Z,85.70
2022-12-11T04:08:36.523Z,76.40
2022-12-11T04:09:37.372Z,88.10
2022-12-11T04:10:38.456Z,74.80
2022-12-11T04:11:38.810Z,82.40
2022-12-11T04:12:39.663Z,78.80
2022-12-11T04:13:40.519Z,80.00
2022-12-11T04:14:41.394Z,78.20
2022-12-11T04:15:42.284Z,83.90
2022-12-11T04:16:43.108Z,74.00
2022-12-11T04:17:43.984Z,78.40
2022-12-11T04:18:44.827Z,72.50
2022-12-11T04:19:45.679Z,67.10
2022-12-11T04:20:46.956Z,77.00
2022-12-11T04:21:47.325Z,64.70
2022-12-11T04:22:48.178Z,62.10
2022-12-11T04:23:49.031Z,70.10
2022-12-11T04:24:49.887Z,63.40
2022-12-11T04:25:50.751Z,63.70
2022-12-11T04:26:51.608Z,60.40
2022-12-11T04:27:52.464Z,63.30
2022-12-11T04:28:53.339Z,64.40
2022-12-11T04:29:54.206Z,57.60
2022-12-11T04:30:55.517Z,60.50
2022-12-11T04:31:55.809Z,54.60
2022-12-11T04:32:56.680Z,53.70
2022-12-11T04:33:57.529Z,56.50
2022-12-11T04:34:58.399Z,51.30
2022-12-11T04:35:59.453Z,51.30
2022-12-11T04:36:59.806Z,57.20
2022-12-11T04:38:00.663Z,53.40
2022-12-11T04:39:01.525Z,48.90
2022-12-11T04:40:02.381Z,48.00
2022-12-11T04:41:03.455Z,48.20
2022-12-11T04:42:03.822Z,48.90
2022-12-11T04:43:04.676Z,58.50
2022-12-11T04:44:05.535Z,48.00
2022-12-11T04:45:06.408Z,48.80
2022-12-11T04:46:07.317Z,51.30
2022-12-11T04:47:08.126Z,51.60
2022-12-11T04:48:08.997Z,52.60
2022-12-11T04:49:09.792Z,52.90
2022-12-11T04:50:10.651Z,50.20
2022-12-11T04:51:11.952Z,47.70
2022-12-11T04:52:12.312Z,51.60
2022-12-11T04:53:13.169Z,49.90
2022-12-11T04:54:14.038Z,46.00
2022-12-11T04:55:14.894Z,52.20
2022-12-11T04:56:15.757Z,55.50
2022-12-11T04:57:16.613Z,48.40
2022-12-11T04:58:17.474Z,47.60
2022-12-11T04:59:18.332Z,47.70
2022-12-11T05:00:19.204Z,46.60
2022-12-11T05:01:20.529Z,46.70
2022-12-11T05:02:20.844Z,49.00
2022-12-11T05:03:21.716Z,45.70
2022-12-11T05:04:22.530Z,51.10
2022-12-11T05:05:23.384Z,44.00
2022-12-11T05:06:24.445Z,45.00
2022-12-11T05:07:24.799Z,45.70
2022-12-11T05:08:25.696Z,45.30
2022-12-11T05:09:26.506Z,43.20
2022-12-11T05:10:27.363Z,47.20
2022-12-11T05:11:28.228Z,42.40
2022-12-11T05:12:29.082Z,43.30
2022-12-11T05:13:29.937Z,45.00
2022-12-11T05:14:30.792Z,41.40
2022-12-11T05:15:31.672Z,46.90
2022-12-11T05:16:32.514Z,44.70
2022-12-11T05:17:33.371Z,42.60
2022-12-11T05:18:34.245Z,41.60
2022-12-11T05:19:35.060Z,41.20
2022-12-11T05:20:35.914Z,51.00
2022-12-11T05:21:36.777Z,49.00
2022-12-11T05:22:37.631Z,47.60
2022-12-11T05:23:38.485Z,44.50
2022-12-11T05:24:39.337Z,45.80
2022-12-11T05:25:40.190Z,44.20
2022-12-11T05:26:41.441Z,47.80
2022-12-11T05:27:41.794Z,50.20
2022-12-11T05:28:42.660Z,45.40
2022-12-11T05:29:43.514Z,47.20
2022-12-11T05:30:44.393Z,44.30
2022-12-11T05:31:45.316Z,41.50
2022-12-11T05:32:46.134Z,47.30
2022-12-11T05:33:47.011Z,44.90
2022-12-11T05:34:47.813Z,46.40
2022-12-11T05:35:48.666Z,41.10
2022-12-11T05:36:49.533Z,46.20
2022-12-11T05:37:50.387Z,47.90
2022-12-11T05:38:51.241Z,47.20
2022-12-11T05:39:52.119Z,38.90
2022-12-11T05:40:52.968Z,42.00
2022-12-11T05:41:53.939Z,41.60
2022-12-11T05:42:54.794Z,38.60
2022-12-11T05:43:55.648Z,43.30
2022-12-11T05:44:56.503Z,39.50
2022-12-11T05:45:57.394Z,42.80
2022-12-11T05:46:58.483Z,43.10
2022-12-11T05:47:58.833Z,41.20
2022-12-11T05:48:59.742Z,41.50
2022-12-11T05:50:00.545Z,43.90
2022-12-11T05:51:01.411Z,46.50
2022-12-11T05:52:02.269Z,45.60
2022-12-11T05:53:03.130Z,41.90
2022-12-11T05:54:03.986Z,44.50
2022-12-11T05:55:04.839Z,47.60
2022-12-11T05:56:05.695Z,48.20
2022-12-11T05:57:06.938Z,48.60
2022-12-11T05:58:07.293Z,51.80
2022-12-11T05:59:08.146Z,44.50
2022-12-11T06:00:09.005Z,46.20
2022-12-11T06:01:09.878Z,45.60
2022-12-11T06:02:11.073Z,49.40
2022-12-11T06:03:11.568Z,43.90
2022-12-11T06:04:12.405Z,45.40
2022-12-11T06:05:13.363Z,48.90
2022-12-11T06:06:13.742Z,47.00
2022-12-11T06:07:14.932Z,53.20
2022-12-11T06:08:15.317Z,46.60
2022-12-11T06:09:16.147Z,49.60
2022-12-11T06:10:17.000Z,52.10
2022-12-11T06:11:23.564Z,50.40
2022-12-11T06:12:19.620Z,54.20
2022-12-11T06:13:19.496Z,54.50
2022-12-11T06:14:20.352Z,43.70
2022-12-11T06:15:21.213Z,52.40
2022-12-11T06:16:22.178Z,46.30
2022-12-11T06:17:23.432Z,48.10
2022-12-11T06:18:23.795Z,47.70
2022-12-11T06:19:24.671Z,53.20
2022-12-11T06:20:25.477Z,48.10
2022-12-11T06:21:26.335Z,46.70
2022-12-11T06:22:27.201Z,56.80
2022-12-11T06:23:28.091Z,42.40
2022-12-11T06:24:28.946Z,48.90
2022-12-11T06:25:29.802Z,46.40
2022-12-11T06:26:30.688Z,49.10
2022-12-11T06:27:31.931Z,51.00
2022-12-11T06:28:32.292Z,40.60
2022-12-11T06:29:33.162Z,51.30
2022-12-11T06:30:38.786Z,48.50
2022-12-11T06:31:35.850Z,50.80
2022-12-11T06:32:35.942Z,43.90
2022-12-11T06:33:36.324Z,43.30
2022-12-11T06:34:37.334Z,42.80
2022-12-11T06:35:41.972Z,48.60
2022-12-11T06:36:38.819Z,43.90
2022-12-11T06:37:39.685Z,40.60
2022-12-11T06:38:40.536Z,50.30
2022-12-11T06:39:41.417Z,47.80
2022-12-11T06:40:42.270Z,46.50
2022-12-11T06:41:43.129Z,42.50
2022-12-11T06:42:43.992Z,47.60
2022-12-11T06:43:44.844Z,46.40
2022-12-11T06:44:45.697Z,48.30
2022-12-11T06:45:46.571Z,47.10
2022-12-11T06:46:47.429Z,51.00
2022-12-11T06:47:48.293Z,47.10
2022-12-11T06:48:49.166Z,48.50
2022-12-11T06:49:50.034Z,49.60
2022-12-11T06:50:50.846Z,51.50
2022-12-11T06:51:51.701Z,45.60
2022-12-11T06:52:52.568Z,48.80
2022-12-11T06:53:53.425Z,47.30
2022-12-11T06:54:54.274Z,49.40
2022-12-11T06:55:55.128Z,47.50
2022-12-11T06:56:55.982Z,52.50
2022-12-11T06:57:56.848Z,44.70
2022-12-11T06:59:00.583Z,41.50
2022-12-11T06:59:59.467Z,48.70
2022-12-11T07:00:59.354Z,47.30
2022-12-11T07:02:00.282Z,57.10
2022-12-11T07:03:01.144Z,45.90
2022-12-11T07:04:02.006Z,44.90
2022-12-11T07:05:02.886Z,39.90
2022-12-11T07:06:03.703Z,35.60
2022-12-11T07:07:04.561Z,41.00
2022-12-11T07:08:05.456Z,46.30
2022-12-11T07:09:06.285Z,46.00
2022-12-11T07:10:08.552Z,45.40
2022-12-11T07:11:08.090Z,49.80
2022-12-11T07:12:08.946Z,43.40
2022-12-11T07:13:09.921Z,43.40
2022-12-11T07:14:10.774Z,41.40
2022-12-11T07:15:12.104Z,39.70
2022-12-11T07:16:12.687Z,41.60
2022-12-11T07:17:13.577Z,41.00
2022-12-11T07:18:14.449Z,40.60
2022-12-11T07:19:15.306Z,43.20
2022-12-11T07:20:16.186Z,41.00
2022-12-11T07:21:17.015Z,39.70
2022-12-11T07:22:17.873Z,40.70
2022-12-11T07:23:18.919Z,44.70
2022-12-11T07:24:19.276Z,38.60
2022-12-11T07:25:20.128Z,43.40
2022-12-11T07:26:20.986Z,42.00
2022-12-11T07:27:21.838Z,36.80
2022-12-11T07:28:22.703Z,43.70
2022-12-11T07:29:23.562Z,42.50
2022-12-11T07:30:24.419Z,36.30
2022-12-11T07:31:25.364Z,36.60
2022-12-11T07:32:26.361Z,43.60
2022-12-11T07:33:26.926Z,40.70
2022-12-11T07:34:27.288Z,33.30
2022-12-11T07:35:28.428Z,35.80
2022-12-11T07:36:28.712Z,28.80
2022-12-11T07:37:29.563Z,35.20
2022-12-11T07:38:30.919Z,34.90
2022-12-11T07:39:31.284Z,36.90
2022-12-11T07:40:32.139Z,32.10
2022-12-11T07:41:32.994Z,29.50
2022-12-11T07:42:33.851Z,28.80
2022-12-11T07:43:34.915Z,28.40
2022-12-11T07:44:35.272Z,35.40
2022-12-11T07:45:36.166Z,30.10
2022-12-11T07:46:37.018Z,32.30
2022-12-11T07:47:37.920Z,32.70
2022-12-11T07:48:38.938Z,33.20
2022-12-11T07:49:39.291Z,32.80
2022-12-11T07:50:40.175Z,33.00
2022-12-11T07:51:40.976Z,30.70
2022-12-11T07:52:41.830Z,32.50
2022-12-11T07:53:42.692Z,28.60
2022-12-11T07:54:43.549Z,32.30
2022-12-11T07:55:44.402Z,29.80
2022-12-11T07:56:48.624Z,35.70
2022-12-11T07:57:47.004Z,29.70
2022-12-11T07:58:46.908Z,32.80
2022-12-11T07:59:47.776Z,27.40
2022-12-11T08:00:48.780Z,27.50
2022-12-11T08:01:49.591Z,29.70
2022-12-11T08:02:50.529Z,30.20
2022-12-11T08:03:51.348Z,32.00
2022-12-11T08:04:52.212Z,29.60
2022-12-11T08:05:53.085Z,29.40
2022-12-11T08:06:53.861Z,32.10
2022-12-11T08:07:54.762Z,30.10
2022-12-11T08:08:55.587Z,27.90
2022-12-11T08:09:56.442Z,32.30
2022-12-11T08:10:57.298Z,31.80
2022-12-11T08:11:58.151Z,29.60
2022-12-11T08:12:59.013Z,32.60
2022-12-11T08:13:59.905Z,30.40
2022-12-11T08:15:00.760Z,29.10
2022-12-11T08:16:01.709Z,29.70
2022-12-11T08:17:02.630Z,30.50
2022-12-11T08:18:03.461Z,30.20
2022-12-11T08:19:04.406Z,30.70
2022-12-11T08:20:05.271Z,34.00
2022-12-11T08:21:06.141Z,30.30
2022-12-11T08:22:06.970Z,28.70
2022-12-11T08:23:07.826Z,30.70
2022-12-11T08:24:08.692Z,33.50
2022-12-11T08:25:10.033Z,30.10
2022-12-11T08:26:10.507Z,30.80
2022-12-11T08:27:11.363Z,31.70
2022-12-11T08:28:12.225Z,26.90
2022-12-11T08:29:13.091Z,30.40
2022-12-11T08:30:13.965Z,30.30
2022-12-11T08:31:14.889Z,31.10
2022-12-11T08:32:15.737Z,31.20
2022-12-11T08:33:16.609Z,28.10
2022-12-11T08:34:17.916Z,28.30
2022-12-11T08:35:18.273Z,24.20
2022-12-11T08:36:19.149Z,28.00
2022-12-11T08:37:19.964Z,27.80
2022-12-11T08:38:25.226Z,25.60
2022-12-11T08:39:21.904Z,28.10
2022-12-11T08:40:22.263Z,27.80
2022-12-11T08:41:23.118Z,29.50
2022-12-11T08:42:23.976Z,30.90
2022-12-11T08:43:24.834Z,33.30
2022-12-11T08:44:25.902Z,29.60
2022-12-11T08:45:26.261Z,32.30
2022-12-11T08:46:27.189Z,31.50
2022-12-11T08:47:28.005Z,28.90
2022-12-11T08:48:28.882Z,29.20
2022-12-11T08:49:34.159Z,32.30
2022-12-11T08:50:30.446Z,27.00
2022-12-11T08:51:31.318Z,30.10
2022-12-11T08:52:32.107Z,32.50
2022-12-11T08:53:32.964Z,31.40
2022-12-11T08:54:33.827Z,29.90
2022-12-11T08:55:34.682Z,31.30
2022-12-11T08:56:35.543Z,29.50
2022-12-11T08:57:36.395Z,28.90
2022-12-11T08:58:37.260Z,32.50
2022-12-11T08:59:38.399Z,27.90
2022-12-11T09:00:38.751Z,30.60
2022-12-11T09:01:39.747Z,29.20
2022-12-11T09:02:40.628Z,26.60
2022-12-11T09:03:41.465Z,28.90
2022-12-11T09:04:42.406Z,29.70
2022-12-11T09:05:43.261Z,30.60
2022-12-11T09:06:44.132Z,28.20
2022-12-11T09:07:44.954Z,28.50
2022-12-11T09:08:51.736Z,28.40
2022-12-11T09:09:47.595Z,25.20
2022-12-11T09:10:47.386Z,31.10
2022-12-11T09:11:48.245Z,27.60
2022-12-11T09:12:49.100Z,27.40
2022-12-11T09:13:49.960Z,29.20
2022-12-11T09:14:50.825Z,28.40
2022-12-11T09:15:51.708Z,26.30
2022-12-11T09:16:52.533Z,28.10
2022-12-11T09:17:53.387Z,26.80
2022-12-11T09:18:54.267Z,31.10
2022-12-11T09:19:55.109Z,29.80
2022-12-11T09:20:55.967Z,26.60
2022-12-11T09:21:56.847Z,29.60
2022-12-11T09:22:57.655Z,26.90
2022-12-11T09:23:58.582Z,32.10
2022-12-11T09:24:59.447Z,27.00
2022-12-11T09:26:00.303Z,33.00
2022-12-11T09:27:01.157Z,26.30
2022-12-11T09:28:02.019Z,29.20
2022-12-11T09:29:02.871Z,25.90
2022-12-11T09:30:03.734Z,32.00
2022-12-11T09:31:04.678Z,27.40
2022-12-11T09:32:05.465Z,28.30
2022-12-11T09:33:06.332Z,24.50
2022-12-11T09:34:07.204Z,24.80
2022-12-11T09:35:08.294Z,27.70
2022-12-11T09:36:08.845Z,29.40
2022-12-11T09:37:09.715Z,28.20
2022-12-11T09:38:10.526Z,28.70
2022-12-11T09:39:11.382Z,29.80
2022-12-11T09:40:12.398Z,29.70
2022-12-11T09:41:12.746Z,23.60
2022-12-11T09:42:13.600Z,27.50
2022-12-11T09:43:14.454Z,24.50
2022-12-11T09:44:15.310Z,26.30
2022-12-11T09:45:16.176Z,26.20
2022-12-11T09:46:17.083Z,27.10
2022-12-11T09:47:17.889Z,28.60
2022-12-11T09:48:18.749Z,27.50
2022-12-11T09:49:19.619Z,23.80
2022-12-11T09:50:20.910Z,26.00
2022-12-11T09:51:21.278Z,24.90
2022-12-11T09:52:22.151Z,28.00
2022-12-11T09:53:22.985Z,26.30
2022-12-11T09:54:23.836Z,28.10
2022-12-11T09:55:24.889Z,24.80
2022-12-11T09:56:25.244Z,22.90
2022-12-11T09:57:26.111Z,25.10
2022-12-11T09:58:26.982Z,23.50
2022-12-11T09:59:27.869Z,22.60
2022-12-11T10:00:28.736Z,25.90
2022-12-11T10:01:29.671Z,29.10
2022-12-11T10:02:30.566Z,23.50
2022-12-11T10:03:31.360Z,26.80
2022-12-11T10:04:32.233Z,27.00
2022-12-11T10:05:33.092Z,24.00
2022-12-11T10:06:33.949Z,25.90
2022-12-11T10:07:34.823Z,25.30
2022-12-11T10:08:35.633Z,24.40
2022-12-11T10:09:36.499Z,26.60
2022-12-11T10:10:37.361Z,25.70
2022-12-11T10:11:38.221Z,26.30
2022-12-11T10:12:39.094Z,25.70
2022-12-11T10:13:39.949Z,25.90
2022-12-11T10:14:40.851Z,24.40
2022-12-11T10:15:41.716Z,23.80
2022-12-11T10:16:42.549Z,24.30
2022-12-11T10:17:43.404Z,27.90
2022-12-11T10:18:44.261Z,26.30
2022-12-11T10:19:45.139Z,25.30
2022-12-11T10:20:46.384Z,26.10
2022-12-11T10:21:46.742Z,24.70
2022-12-11T10:22:47.622Z,27.50
2022-12-11T10:23:48.454Z,28.40
2022-12-11T10:25:51.199Z,30.60
2022-12-11T10:26:51.066Z,27.30
2022-12-11T10:27:51.919Z,28.20
2022-12-11T10:28:52.820Z,27.40
2022-12-11T10:29:53.655Z,26.90
2022-12-11T10:30:54.588Z,28.40
2022-12-11T10:31:55.384Z,28.80
2022-12-11T10:32:56.238Z,28.20
2022-12-11T10:33:57.092Z,27.40
2022-12-11T10:34:57.965Z,25.90
2022-12-11T10:35:58.820Z,28.90
2022-12-11T10:37:00.691Z,29.40
2022-12-11T10:38:00.561Z,29.80
2022-12-11T10:39:01.378Z,27.90
2022-12-11T10:40:02.231Z,27.30
2022-12-11T10:41:03.096Z,28.40
2022-12-11T10:42:03.950Z,24.50
2022-12-11T10:43:04.809Z,24.90
2022-12-11T10:44:05.662Z,24.50
2022-12-11T10:45:06.517Z,25.30
2022-12-11T10:46:07.506Z,27.70
2022-12-11T10:47:08.323Z,24.90
2022-12-11T10:48:09.176Z,25.30
2022-12-11T10:49:10.033Z,23.90
2022-12-11T10:50:10.903Z,25.10
2022-12-11T10:51:11.908Z,24.10
2022-12-11T10:52:12.252Z,24.00
2022-12-11T10:53:13.128Z,24.70
2022-12-11T10:54:13.961Z,22.20
2022-12-11T10:55:14.817Z,24.00
2022-12-11T10:56:15.683Z,21.40
2022-12-11T10:57:16.537Z,21.50
2022-12-11T10:58:17.393Z,22.50
2022-12-11T10:59:23.874Z,23.00
2022-12-11T11:00:20.003Z,22.20
2022-12-11T11:01:19.945Z,23.60
2022-12-11T11:02:20.802Z,20.40
2022-12-11T11:03:21.624Z,23.00
2022-12-11T11:04:22.481Z,27.10
2022-12-11T11:05:23.381Z,23.50
2022-12-11T11:06:24.398Z,21.50
2022-12-11T11:07:24.779Z,22.40
2022-12-11T11:08:25.782Z,19.20
2022-12-11T11:09:26.587Z,14.80
2022-12-11T11:10:27.447Z,16.30
2022-12-11T11:11:28.372Z,18.60
2022-12-11T11:12:29.233Z,18.20
2022-12-11T11:13:30.094Z,17.30
2022-12-11T11:14:30.960Z,19.10
2022-12-11T11:15:31.827Z,17.30
2022-12-11T11:16:32.738Z,17.20
2022-12-11T11:17:35.103Z,18.00
2022-12-11T11:18:34.498Z,19.40
2022-12-11T11:19:35.390Z,19.30
2022-12-11T11:20:36.261Z,21.00
2022-12-11T11:21:37.373Z,19.30
2022-12-11T11:22:37.736Z,18.80
2022-12-11T11:23:44.302Z,18.70
2022-12-11T11:24:40.355Z,17.20
2022-12-11T11:25:40.208Z,20.90
2022-12-11T11:27:11.805Z,16.60
2022-12-11T11:27:42.823Z,21.50
2022-12-11T11:28:42.678Z,20.00
2022-12-11T11:29:43.530Z,22.30
2022-12-11T11:30:44.382Z,20.70
2022-12-11T11:31:45.268Z,21.70
2022-12-11T11:32:46.100Z,23.50
2022-12-11T11:33:46.975Z,22.90
2022-12-11T11:34:47.830Z,20.60
2022-12-11T11:35:48.711Z,22.20
2022-12-11T11:36:49.869Z,22.80
2022-12-11T11:37:50.225Z,19.80
2022-12-11T11:38:51.115Z,21.70
2022-12-11T11:39:51.972Z,22.80
2022-12-11T11:40:52.826Z,25.40
2022-12-11T11:41:53.865Z,21.80
2022-12-11T11:42:54.234Z,23.80
2022-12-11T11:43:55.095Z,21.90
2022-12-11T11:44:55.961Z,23.20
2022-12-11T11:45:56.819Z,21.40
2022-12-11T11:46:57.777Z,20.50
2022-12-11T11:47:58.597Z,22.60
2022-12-11T11:48:59.453Z,20.50
2022-12-11T11:50:00.332Z,21.90
2022-12-11T11:51:01.230Z,23.90
2022-12-11T11:52:02.090Z,21.10
2022-12-11T11:53:02.941Z,23.00
2022-12-11T11:54:03.818Z,21.20
2022-12-11T11:55:04.641Z,21.40
2022-12-11T11:56:05.500Z,21.60
2022-12-11T11:57:06.863Z,21.40
2022-12-11T11:58:07.223Z,20.50
2022-12-11T11:59:08.086Z,18.80
2022-12-11T12:00:08.943Z,20.00
2022-12-11T12:01:09.803Z,20.70
2022-12-11T12:02:10.864Z,19.80
2022-12-11T12:03:11.265Z,17.60
2022-12-11T12:04:12.077Z,18.50
2022-12-11T12:05:13.237Z,20.10
2022-12-11T12:06:15.380Z,20.00
2022-12-11T12:07:14.384Z,21.60
2022-12-11T12:08:15.288Z,16.90
2022-12-11T12:09:16.159Z,20.70
2022-12-11T12:10:17.000Z,19.70
2022-12-11T12:11:17.854Z,22.50
2022-12-11T12:12:25.521Z,19.50
2022-12-11T12:13:47.935Z,20.80
2022-12-11T12:14:51.056Z,23.20
2022-12-11T12:15:22.132Z,24.50
2022-12-11T12:16:51.143Z,19.30
2022-12-11T12:17:23.782Z,21.90
2022-12-11T12:18:23.598Z,23.60
2022-12-11T12:19:24.453Z,22.70
2022-12-11T12:20:25.317Z,21.20
2022-12-11T12:21:26.203Z,23.80
2022-12-11T12:22:27.362Z,24.00
2022-12-11T12:23:31.955Z,23.40
2022-12-11T12:24:29.527Z,23.70
2022-12-11T12:25:29.362Z,23.60
2022-12-11T12:26:30.219Z,23.60
2022-12-11T12:27:53.163Z,22.10
2022-12-11T12:28:32.616Z,19.40
2022-12-11T12:29:32.472Z,27.70
2022-12-11T12:30:33.331Z,23.50
2022-12-11T12:31:34.224Z,25.40
2022-12-11T12:32:35.062Z,24.20
2022-12-11T12:33:35.923Z,24.50
2022-12-11T12:34:36.772Z,24.80
2022-12-11T12:35:37.630Z,22.10
2022-12-11T12:36:38.501Z,21.80
2022-12-11T12:37:39.355Z,24.80
2022-12-11T12:38:40.219Z,23.30
2022-12-11T12:39:41.094Z,26.50
2022-12-11T12:40:41.922Z,23.70
2022-12-11T12:41:42.778Z,23.10
2022-12-11T12:42:43.854Z,22.80
2022-12-11T12:43:44.253Z,25.80
2022-12-11T12:44:45.071Z,27.50
2022-12-11T12:45:45.985Z,26.10
2022-12-11T12:46:46.782Z,25.40
2022-12-11T12:47:53.068Z,21.90
2022-12-11T12:48:49.401Z,25.00
2022-12-11T12:49:49.271Z,23.20
2022-12-11T12:50:50.125Z,27.10
2022-12-11T12:51:51.005Z,27.10
2022-12-11T12:52:51.868Z,30.40
2022-12-11T12:53:52.723Z,24.00
2022-12-11T12:54:53.596Z,25.40
2022-12-11T12:55:54.398Z,22.90
2022-12-11T12:56:55.256Z,20.70
2022-12-11T12:57:56.353Z,22.90
2022-12-11T12:58:56.710Z,23.20
2022-12-11T12:59:57.569Z,23.00
2022-12-11T13:00:58.502Z,22.30
2022-12-11T13:01:59.352Z,20.70
2022-12-11T13:03:00.371Z,21.30
2022-12-11T13:04:00.725Z,20.00